sensor_id;sensor_type;location;lat;lon;timestamp;pressure;altitude;pressure_sealevel;temperature;humidity
61898;BME280;47850;50.274;18.908;2023-04-29T00:01:53;97859.04;;;9.92;46.10
61898;BME280;47850;50.274;18.908;2023-04-29T00:04:25;97859.96;;;9.90;45.97
61898;BME280;47850;50.274;18.908;2023-04-29T00:06:52;97858.69;;;9.87;46.27
61898;BME280;47850;50.274;18.908;2023-04-29T00:09:20;97855.29;;;9.86;46.13
61898;BME280;47850;50.274;18.908;2023-04-29T00:11:48;97852.19;;;9.84;46.61
61898;BME280;47850;50.274;18.908;2023-04-29T00:14:16;97851.19;;;9.83;46.39
61898;BME280;47850;50.274;18.908;2023-04-29T00:16:44;97851.39;;;9.82;46.31
61898;BME280;47850;50.274;18.908;2023-04-29T00:19:12;97850.03;;;9.82;46.60
61898;BME280;47850;50.274;18.908;2023-04-29T00:21:39;97850.33;;;9.81;46.55
61898;BME280;47850;50.274;18.908;2023-04-29T00:24:08;97847.92;;;9.81;46.69
61898;BME280;47850;50.274;18.908;2023-04-29T00:26:35;97844.55;;;9.81;46.74
61898;BME280;47850;50.274;18.908;2023-04-29T00:29:03;97840.35;;;9.81;46.77
61898;BME280;47850;50.274;18.908;2023-04-29T00:31:31;97839.33;;;9.81;47.14
61898;BME280;47850;50.274;18.908;2023-04-29T00:33:59;97833.39;;;9.80;47.07
61898;BME280;47850;50.274;18.908;2023-04-29T00:36:26;97834.66;;;9.79;47.35
61898;BME280;47850;50.274;18.908;2023-04-29T00:38:54;97831.43;;;9.78;47.86
61898;BME280;47850;50.274;18.908;2023-04-29T00:41:22;97829.58;;;9.78;48.36
61898;BME280;47850;50.274;18.908;2023-04-29T00:43:50;97829.64;;;9.78;48.56
61898;BME280;47850;50.274;18.908;2023-04-29T00:46:19;97828.84;;;9.77;49.10
61898;BME280;47850;50.274;18.908;2023-04-29T00:48:46;97829.13;;;9.77;50.03
61898;BME280;47850;50.274;18.908;2023-04-29T00:51:15;97828.42;;;9.77;49.81
61898;BME280;47850;50.274;18.908;2023-04-29T00:53:43;97828.16;;;9.76;49.80
61898;BME280;47850;50.274;18.908;2023-04-29T00:56:11;97829.13;;;9.75;49.47
61898;BME280;47850;50.274;18.908;2023-04-29T00:58:42;97830.77;;;9.75;49.33
61898;BME280;47850;50.274;18.908;2023-04-29T01:01:16;97832.91;;;9.76;49.55
61898;BME280;47850;50.274;18.908;2023-04-29T01:03:43;97834.41;;;9.77;50.06
61898;BME280;47850;50.274;18.908;2023-04-29T01:09:09;97838.16;;;9.77;51.13
61898;BME280;47850;50.274;18.908;2023-04-29T01:14:28;97835.95;;;9.78;51.99
61898;BME280;47850;50.274;18.908;2023-04-29T01:16:59;97838.39;;;9.77;52.20
61898;BME280;47850;50.274;18.908;2023-04-29T01:22:04;97835.32;;;9.72;52.50
61898;BME280;47850;50.274;18.908;2023-04-29T01:24:32;97836.48;;;9.71;52.56
61898;BME280;47850;50.274;18.908;2023-04-29T01:27:11;97834.73;;;9.71;52.33
61898;BME280;47850;50.274;18.908;2023-04-29T01:32:10;97836.70;;;9.71;52.09
61898;BME280;47850;50.274;18.908;2023-04-29T01:34:41;97833.11;;;9.71;52.30
61898;BME280;47850;50.274;18.908;2023-04-29T01:42:22;97825.20;;;9.66;52.08
61898;BME280;47850;50.274;18.908;2023-04-29T01:44:52;97823.73;;;9.65;52.13
61898;BME280;47850;50.274;18.908;2023-04-29T01:47:21;97827.20;;;9.62;52.18
61898;BME280;47850;50.274;18.908;2023-04-29T01:49:49;97824.95;;;9.59;52.57
61898;BME280;47850;50.274;18.908;2023-04-29T01:52:17;97823.80;;;9.58;52.75
61898;BME280;47850;50.274;18.908;2023-04-29T01:54:44;97820.49;;;9.55;53.22
61898;BME280;47850;50.274;18.908;2023-04-29T01:57:13;97817.84;;;9.55;53.47
61898;BME280;47850;50.274;18.908;2023-04-29T01:59:40;97818.05;;;9.55;53.64
61898;BME280;47850;50.274;18.908;2023-04-29T02:02:08;97817.30;;;9.53;53.59
61898;BME280;47850;50.274;18.908;2023-04-29T02:04:36;97816.33;;;9.51;54.14
61898;BME280;47850;50.274;18.908;2023-04-29T02:07:04;97819.06;;;9.49;54.50
61898;BME280;47850;50.274;18.908;2023-04-29T02:09:31;97814.98;;;9.49;54.75
61898;BME280;47850;50.274;18.908;2023-04-29T02:11:59;97813.67;;;9.47;54.85
61898;BME280;47850;50.274;18.908;2023-04-29T02:14:27;97811.71;;;9.47;55.00
61898;BME280;47850;50.274;18.908;2023-04-29T02:16:55;97810.95;;;9.47;55.04
61898;BME280;47850;50.274;18.908;2023-04-29T02:19:22;97810.34;;;9.47;55.02
61898;BME280;47850;50.274;18.908;2023-04-29T02:21:50;97812.19;;;9.47;55.43
61898;BME280;47850;50.274;18.908;2023-04-29T02:24:18;97810.02;;;9.47;55.68
61898;BME280;47850;50.274;18.908;2023-04-29T02:26:45;97807.14;;;9.47;55.65
61898;BME280;47850;50.274;18.908;2023-04-29T02:29:13;97804.99;;;9.48;56.00
61898;BME280;47850;50.274;18.908;2023-04-29T02:31:40;97804.67;;;9.48;56.16
61898;BME280;47850;50.274;18.908;2023-04-29T02:34:08;97804.20;;;9.47;56.12
61898;BME280;47850;50.274;18.908;2023-04-29T02:36:36;97797.22;;;9.48;56.68
61898;BME280;47850;50.274;18.908;2023-04-29T02:39:03;97799.23;;;9.49;56.73
61898;BME280;47850;50.274;18.908;2023-04-29T02:41:31;97798.44;;;9.49;56.99
61898;BME280;47850;50.274;18.908;2023-04-29T02:43:59;97793.98;;;9.48;57.06
61898;BME280;47850;50.274;18.908;2023-04-29T02:46:27;97797.54;;;9.48;57.20
61898;BME280;47850;50.274;18.908;2023-04-29T02:48:54;97796.48;;;9.49;57.52
61898;BME280;47850;50.274;18.908;2023-04-29T02:51:22;97799.02;;;9.49;57.75
61898;BME280;47850;50.274;18.908;2023-04-29T02:53:49;97798.41;;;9.50;57.85
61898;BME280;47850;50.274;18.908;2023-04-29T02:56:17;97801.48;;;9.51;58.41
61898;BME280;47850;50.274;18.908;2023-04-29T02:58:45;97795.37;;;9.51;58.39
61898;BME280;47850;50.274;18.908;2023-04-29T03:01:12;97794.23;;;9.52;58.47
61898;BME280;47850;50.274;18.908;2023-04-29T03:03:40;97792.45;;;9.54;59.53
61898;BME280;47850;50.274;18.908;2023-04-29T03:06:08;97783.73;;;9.56;60.04
61898;BME280;47850;50.274;18.908;2023-04-29T03:08:36;97781.61;;;9.57;59.84
61898;BME280;47850;50.274;18.908;2023-04-29T03:11:03;97776.85;;;9.56;59.47
61898;BME280;47850;50.274;18.908;2023-04-29T03:13:31;97776.07;;;9.57;59.21
61898;BME280;47850;50.274;18.908;2023-04-29T03:15:59;97772.48;;;9.56;59.00
61898;BME280;47850;50.274;18.908;2023-04-29T03:18:27;97773.77;;;9.56;58.86
61898;BME280;47850;50.274;18.908;2023-04-29T03:20:55;97769.73;;;9.54;58.97
61898;BME280;47850;50.274;18.908;2023-04-29T03:23:23;97775.50;;;9.54;59.20
61898;BME280;47850;50.274;18.908;2023-04-29T03:25:50;97779.76;;;9.56;59.49
61898;BME280;47850;50.274;18.908;2023-04-29T03:28:19;97779.79;;;9.56;59.89
61898;BME280;47850;50.274;18.908;2023-04-29T03:30:47;97777.38;;;9.56;60.10
61898;BME280;47850;50.274;18.908;2023-04-29T03:33:14;97777.00;;;9.56;59.74
61898;BME280;47850;50.274;18.908;2023-04-29T03:35:42;97771.14;;;9.56;59.83
61898;BME280;47850;50.274;18.908;2023-04-29T03:38:10;97772.77;;;9.56;59.50
61898;BME280;47850;50.274;18.908;2023-04-29T03:40:38;97768.62;;;9.55;59.62
61898;BME280;47850;50.274;18.908;2023-04-29T03:43:06;97772.29;;;9.56;60.07
61898;BME280;47850;50.274;18.908;2023-04-29T03:45:35;97769.58;;;9.56;60.57
61898;BME280;47850;50.274;18.908;2023-04-29T03:48:04;97772.93;;;9.56;60.96
61898;BME280;47850;50.274;18.908;2023-04-29T03:50:31;97771.33;;;9.55;60.66
61898;BME280;47850;50.274;18.908;2023-04-29T03:52:59;97771.55;;;9.55;60.69
61898;BME280;47850;50.274;18.908;2023-04-29T03:55:27;97771.55;;;9.55;60.67
61898;BME280;47850;50.274;18.908;2023-04-29T03:57:55;97774.09;;;9.56;60.62
61898;BME280;47850;50.274;18.908;2023-04-29T04:00:22;97772.73;;;9.57;60.60
61898;BME280;47850;50.274;18.908;2023-04-29T04:02:52;97776.42;;;9.58;60.71
61898;BME280;47850;50.274;18.908;2023-04-29T04:05:20;97776.52;;;9.58;60.88
61898;BME280;47850;50.274;18.908;2023-04-29T04:07:51;97774.95;;;9.58;60.43
61898;BME280;47850;50.274;18.908;2023-04-29T04:10:19;97777.17;;;9.57;60.61
61898;BME280;47850;50.274;18.908;2023-04-29T04:12:47;97776.31;;;9.56;60.99
61898;BME280;47850;50.274;18.908;2023-04-29T04:15:14;97776.40;;;9.55;60.94
61898;BME280;47850;50.274;18.908;2023-04-29T04:17:43;97773.25;;;9.55;60.79
61898;BME280;47850;50.274;18.908;2023-04-29T04:20:11;97772.17;;;9.54;60.89
61898;BME280;47850;50.274;18.908;2023-04-29T04:22:39;97771.17;;;9.55;61.10
61898;BME280;47850;50.274;18.908;2023-04-29T04:25:07;97769.48;;;9.53;61.48
61898;BME280;47850;50.274;18.908;2023-04-29T04:27:35;97769.58;;;9.52;61.79
61898;BME280;47850;50.274;18.908;2023-04-29T04:30:03;97769.23;;;9.51;61.54
61898;BME280;47850;50.274;18.908;2023-04-29T04:32:31;97767.50;;;9.51;61.53
61898;BME280;47850;50.274;18.908;2023-04-29T04:34:58;97765.29;;;9.52;61.66
61898;BME280;47850;50.274;18.908;2023-04-29T04:37:26;97766.17;;;9.53;61.46
61898;BME280;47850;50.274;18.908;2023-04-29T04:39:54;97763.39;;;9.53;61.48
61898;BME280;47850;50.274;18.908;2023-04-29T04:42:22;97767.70;;;9.53;61.57
61898;BME280;47850;50.274;18.908;2023-04-29T04:44:51;97767.05;;;9.55;61.82
61898;BME280;47850;50.274;18.908;2023-04-29T04:47:19;97769.54;;;9.57;61.99
61898;BME280;47850;50.274;18.908;2023-04-29T04:49:47;97773.22;;;9.57;61.92
61898;BME280;47850;50.274;18.908;2023-04-29T04:52:18;97773.74;;;9.58;62.02
61898;BME280;47850;50.274;18.908;2023-04-29T04:54:46;97772.77;;;9.59;61.97
61898;BME280;47850;50.274;18.908;2023-04-29T04:57:14;97776.38;;;9.61;62.14
61898;BME280;47850;50.274;18.908;2023-04-29T04:59:42;97776.67;;;9.60;62.51
61898;BME280;47850;50.274;18.908;2023-04-29T05:02:10;97774.98;;;9.62;62.40
61898;BME280;47850;50.274;18.908;2023-04-29T05:04:38;97773.63;;;9.63;62.36
61898;BME280;47850;50.274;18.908;2023-04-29T05:07:06;97777.73;;;9.66;62.31
61898;BME280;47850;50.274;18.908;2023-04-29T05:09:33;97777.30;;;9.69;62.35
61898;BME280;47850;50.274;18.908;2023-04-29T05:12:01;97776.64;;;9.71;62.56
61898;BME280;47850;50.274;18.908;2023-04-29T05:14:29;97773.29;;;9.75;62.92
61898;BME280;47850;50.274;18.908;2023-04-29T05:16:57;97770.86;;;9.79;62.47
61898;BME280;47850;50.274;18.908;2023-04-29T05:19:25;97771.86;;;9.81;63.08
61898;BME280;47850;50.274;18.908;2023-04-29T05:21:53;97773.34;;;9.82;62.96
61898;BME280;47850;50.274;18.908;2023-04-29T05:24:21;97776.63;;;9.84;62.80
61898;BME280;47850;50.274;18.908;2023-04-29T05:26:48;97777.44;;;9.88;62.71
61898;BME280;47850;50.274;18.908;2023-04-29T05:29:18;97777.33;;;9.92;62.69
61898;BME280;47850;50.274;18.908;2023-04-29T05:31:46;97775.17;;;9.94;62.68
61898;BME280;47850;50.274;18.908;2023-04-29T05:34:14;97774.85;;;9.96;62.77
61898;BME280;47850;50.274;18.908;2023-04-29T05:36:41;97774.02;;;9.96;62.71
61898;BME280;47850;50.274;18.908;2023-04-29T05:39:09;97778.46;;;9.97;63.08
61898;BME280;47850;50.274;18.908;2023-04-29T05:41:37;97777.95;;;9.97;62.96
61898;BME280;47850;50.274;18.908;2023-04-29T05:44:06;97780.04;;;9.98;63.03
61898;BME280;47850;50.274;18.908;2023-04-29T05:46:33;97781.38;;;9.99;62.98
61898;BME280;47850;50.274;18.908;2023-04-29T05:49:01;97780.63;;;10.02;63.74
61898;BME280;47850;50.274;18.908;2023-04-29T05:51:29;97778.22;;;10.04;64.21
61898;BME280;47850;50.274;18.908;2023-04-29T05:53:58;97780.42;;;10.06;64.19
61898;BME280;47850;50.274;18.908;2023-04-29T05:56:28;97781.35;;;10.08;64.80
61898;BME280;47850;50.274;18.908;2023-04-29T05:58:57;97780.80;;;10.08;65.43
61898;BME280;47850;50.274;18.908;2023-04-29T06:01:25;97785.25;;;10.09;65.59
61898;BME280;47850;50.274;18.908;2023-04-29T06:03:52;97787.90;;;10.09;65.73
61898;BME280;47850;50.274;18.908;2023-04-29T06:06:20;97789.70;;;10.09;66.06
61898;BME280;47850;50.274;18.908;2023-04-29T06:08:48;97792.36;;;10.09;65.95
61898;BME280;47850;50.274;18.908;2023-04-29T06:11:15;97792.39;;;10.10;65.73
61898;BME280;47850;50.274;18.908;2023-04-29T06:13:43;97788.55;;;10.11;65.80
61898;BME280;47850;50.274;18.908;2023-04-29T06:16:10;97785.84;;;10.13;65.87
61898;BME280;47850;50.274;18.908;2023-04-29T06:18:38;97783.75;;;10.17;66.06
61898;BME280;47850;50.274;18.908;2023-04-29T06:21:06;97780.52;;;10.24;66.38
61898;BME280;47850;50.274;18.908;2023-04-29T06:23:33;97776.83;;;10.33;66.38
61898;BME280;47850;50.274;18.908;2023-04-29T06:26:02;97776.63;;;10.43;66.41
61898;BME280;47850;50.274;18.908;2023-04-29T06:28:30;97772.08;;;10.48;66.05
61898;BME280;47850;50.274;18.908;2023-04-29T06:30:57;97771.60;;;10.53;66.06
61898;BME280;47850;50.274;18.908;2023-04-29T06:33:25;97772.89;;;10.60;65.96
61898;BME280;47850;50.274;18.908;2023-04-29T06:35:53;97771.17;;;10.66;66.16
61898;BME280;47850;50.274;18.908;2023-04-29T06:38:20;97767.05;;;10.71;65.69
61898;BME280;47850;50.274;18.908;2023-04-29T06:40:48;97765.59;;;10.73;65.75
61898;BME280;47850;50.274;18.908;2023-04-29T06:43:16;97767.81;;;10.74;65.44
61898;BME280;47850;50.274;18.908;2023-04-29T06:45:47;97767.83;;;10.75;65.74
61898;BME280;47850;50.274;18.908;2023-04-29T06:48:14;97770.85;;;10.74;65.63
61898;BME280;47850;50.274;18.908;2023-04-29T06:50:52;97771.33;;;10.74;66.01
61898;BME280;47850;50.274;18.908;2023-04-29T06:53:20;97769.42;;;10.76;65.63
61898;BME280;47850;50.274;18.908;2023-04-29T06:55:48;97769.95;;;10.79;65.83
61898;BME280;47850;50.274;18.908;2023-04-29T06:58:16;97771.54;;;10.82;65.93
61898;BME280;47850;50.274;18.908;2023-04-29T07:00:45;97768.95;;;10.81;66.00
61898;BME280;47850;50.274;18.908;2023-04-29T07:03:14;97772.48;;;10.80;65.84
61898;BME280;47850;50.274;18.908;2023-04-29T07:05:42;97771.35;;;10.79;65.93
61898;BME280;47850;50.274;18.908;2023-04-29T07:08:12;97770.65;;;10.81;66.12
61898;BME280;47850;50.274;18.908;2023-04-29T07:10:40;97767.64;;;10.84;66.35
61898;BME280;47850;50.274;18.908;2023-04-29T07:13:08;97768.67;;;10.89;66.68
61898;BME280;47850;50.274;18.908;2023-04-29T07:15:35;97768.82;;;10.95;66.67
61898;BME280;47850;50.274;18.908;2023-04-29T07:18:03;97769.58;;;11.00;66.70
61898;BME280;47850;50.274;18.908;2023-04-29T07:20:31;97771.88;;;11.04;66.80
61898;BME280;47850;50.274;18.908;2023-04-29T07:22:59;97769.69;;;11.05;66.79
61898;BME280;47850;50.274;18.908;2023-04-29T07:25:27;97773.02;;;11.09;66.57
61898;BME280;47850;50.274;18.908;2023-04-29T07:27:56;97769.11;;;11.13;67.16
61898;BME280;47850;50.274;18.908;2023-04-29T07:30:23;97773.84;;;11.14;66.96
61898;BME280;47850;50.274;18.908;2023-04-29T07:32:51;97773.98;;;11.18;66.64
61898;BME280;47850;50.274;18.908;2023-04-29T07:35:19;97778.73;;;11.26;66.56
61898;BME280;47850;50.274;18.908;2023-04-29T07:37:47;97779.31;;;11.34;66.48
61898;BME280;47850;50.274;18.908;2023-04-29T07:40:15;97780.39;;;11.33;66.56
61898;BME280;47850;50.274;18.908;2023-04-29T07:42:43;97778.77;;;11.34;66.85
61898;BME280;47850;50.274;18.908;2023-04-29T07:45:11;97776.51;;;11.44;66.53
61898;BME280;47850;50.274;18.908;2023-04-29T07:47:40;97777.95;;;11.63;66.37
61898;BME280;47850;50.274;18.908;2023-04-29T07:50:08;97771.39;;;11.81;65.61
61898;BME280;47850;50.274;18.908;2023-04-29T07:52:36;97774.92;;;12.00;65.03
61898;BME280;47850;50.274;18.908;2023-04-29T07:55:04;97776.02;;;12.20;64.65
61898;BME280;47850;50.274;18.908;2023-04-29T07:57:32;97776.67;;;12.38;64.18
61898;BME280;47850;50.274;18.908;2023-04-29T07:59:59;97773.21;;;12.55;63.77
61898;BME280;47850;50.274;18.908;2023-04-29T08:02:27;97776.33;;;12.74;63.40
61898;BME280;47850;50.274;18.908;2023-04-29T08:04:55;97775.90;;;12.93;62.73
61898;BME280;47850;50.274;18.908;2023-04-29T08:07:23;97779.43;;;13.02;61.88
61898;BME280;47850;50.274;18.908;2023-04-29T08:09:50;97773.63;;;13.02;61.86
61898;BME280;47850;50.274;18.908;2023-04-29T08:12:18;97771.86;;;13.08;61.86
61898;BME280;47850;50.274;18.908;2023-04-29T08:14:46;97773.30;;;13.14;61.68
61898;BME280;47850;50.274;18.908;2023-04-29T08:17:13;97772.29;;;13.19;61.33
61898;BME280;47850;50.274;18.908;2023-04-29T08:19:41;97773.65;;;13.27;61.35
61898;BME280;47850;50.274;18.908;2023-04-29T08:22:08;97770.98;;;13.34;61.02
61898;BME280;47850;50.274;18.908;2023-04-29T08:24:38;97774.83;;;13.37;60.83
61898;BME280;47850;50.274;18.908;2023-04-29T08:27:08;97778.06;;;13.45;60.62
61898;BME280;47850;50.274;18.908;2023-04-29T08:29:35;97777.95;;;13.47;60.41
61898;BME280;47850;50.274;18.908;2023-04-29T08:32:03;97777.32;;;13.50;60.32
61898;BME280;47850;50.274;18.908;2023-04-29T08:34:31;97780.34;;;13.57;60.09
61898;BME280;47850;50.274;18.908;2023-04-29T08:37:01;97780.23;;;13.62;59.52
61898;BME280;47850;50.274;18.908;2023-04-29T08:39:29;97781.67;;;13.71;59.32
61898;BME280;47850;50.274;18.908;2023-04-29T08:41:57;97782.08;;;13.78;59.00
61898;BME280;47850;50.274;18.908;2023-04-29T08:44:25;97784.23;;;13.88;58.75
61898;BME280;47850;50.274;18.908;2023-04-29T08:46:56;97780.62;;;14.09;58.38
61898;BME280;47850;50.274;18.908;2023-04-29T08:49:27;97777.73;;;14.37;58.05
61898;BME280;47850;50.274;18.908;2023-04-29T08:51:54;97776.25;;;14.64;57.29
61898;BME280;47850;50.274;18.908;2023-04-29T08:54:22;97775.23;;;14.84;56.74
61898;BME280;47850;50.274;18.908;2023-04-29T08:56:50;97769.70;;;15.03;56.57
61898;BME280;47850;50.274;18.908;2023-04-29T08:59:18;97774.71;;;15.25;54.96
61898;BME280;47850;50.274;18.908;2023-04-29T09:01:47;97771.09;;;15.36;54.61
61898;BME280;47850;50.274;18.908;2023-04-29T09:06:48;97771.52;;;15.57;53.67
61898;BME280;47850;50.274;18.908;2023-04-29T09:09:17;97772.56;;;15.78;53.16
61898;BME280;47850;50.274;18.908;2023-04-29T09:11:45;97777.00;;;16.00;52.56
61898;BME280;47850;50.274;18.908;2023-04-29T09:14:13;97777.50;;;15.98;51.63
61898;BME280;47850;50.274;18.908;2023-04-29T09:16:44;97773.82;;;15.78;51.94
61898;BME280;47850;50.274;18.908;2023-04-29T09:19:27;97771.90;;;15.73;52.42
61898;BME280;47850;50.274;18.908;2023-04-29T09:21:55;97765.89;;;15.99;52.67
61898;BME280;47850;50.274;18.908;2023-04-29T09:24:24;97765.48;;;16.34;52.07
61898;BME280;47850;50.274;18.908;2023-04-29T09:26:51;97766.11;;;16.59;51.51
61898;BME280;47850;50.274;18.908;2023-04-29T09:29:19;97770.55;;;16.56;50.80
61898;BME280;47850;50.274;18.908;2023-04-29T09:31:47;97768.71;;;16.35;51.35
61898;BME280;47850;50.274;18.908;2023-04-29T09:34:16;97766.44;;;16.12;52.17
61898;BME280;47850;50.274;18.908;2023-04-29T09:36:47;97768.30;;;15.89;52.68
61898;BME280;47850;50.274;18.908;2023-04-29T09:39:16;97770.88;;;15.60;53.35
61898;BME280;47850;50.274;18.908;2023-04-29T09:44:25;97769.14;;;15.28;54.56
61898;BME280;47850;50.274;18.908;2023-04-29T09:46:57;97771.33;;;15.16;54.80
61898;BME280;47850;50.274;18.908;2023-04-29T09:49:26;97774.03;;;15.00;55.31
61898;BME280;47850;50.274;18.908;2023-04-29T09:51:55;97774.55;;;14.89;55.81
61898;BME280;47850;50.274;18.908;2023-04-29T09:54:23;97771.15;;;14.83;56.06
61898;BME280;47850;50.274;18.908;2023-04-29T09:56:52;97779.39;;;14.77;56.09
61898;BME280;47850;50.274;18.908;2023-04-29T09:59:20;97782.81;;;14.66;56.33
61898;BME280;47850;50.274;18.908;2023-04-29T10:01:48;97783.40;;;14.64;56.75
61898;BME280;47850;50.274;18.908;2023-04-29T10:04:17;97785.42;;;14.66;56.58
61898;BME280;47850;50.274;18.908;2023-04-29T10:06:50;97785.88;;;14.57;56.58
61898;BME280;47850;50.274;18.908;2023-04-29T10:09:18;97786.58;;;14.40;57.17
61898;BME280;47850;50.274;18.908;2023-04-29T10:11:47;97786.70;;;14.36;57.36
61898;BME280;47850;50.274;18.908;2023-04-29T10:14:16;97787.77;;;14.31;57.71
61898;BME280;47850;50.274;18.908;2023-04-29T10:16:45;97783.45;;;14.19;58.03
61898;BME280;47850;50.274;18.908;2023-04-29T10:19:16;97784.80;;;14.07;58.43
61898;BME280;47850;50.274;18.908;2023-04-29T10:21:45;97786.82;;;14.00;58.74
61898;BME280;47850;50.274;18.908;2023-04-29T10:24:16;97785.95;;;13.97;58.93
61898;BME280;47850;50.274;18.908;2023-04-29T10:26:44;97783.97;;;13.94;59.33
61898;BME280;47850;50.274;18.908;2023-04-29T10:29:13;97782.66;;;13.91;59.59
61898;BME280;47850;50.274;18.908;2023-04-29T10:31:42;97782.60;;;13.86;59.48
61898;BME280;47850;50.274;18.908;2023-04-29T10:34:10;97782.95;;;13.79;59.81
61898;BME280;47850;50.274;18.908;2023-04-29T10:36:37;97780.27;;;13.72;60.04
61898;BME280;47850;50.274;18.908;2023-04-29T10:39:06;97781.39;;;13.67;60.35
61898;BME280;47850;50.274;18.908;2023-04-29T10:41:36;97776.44;;;13.63;60.42
61898;BME280;47850;50.274;18.908;2023-04-29T10:44:09;97776.98;;;13.60;60.40
61898;BME280;47850;50.274;18.908;2023-04-29T10:46:37;97778.41;;;13.58;60.72
61898;BME280;47850;50.274;18.908;2023-04-29T10:49:05;97776.52;;;13.60;60.87
61898;BME280;47850;50.274;18.908;2023-04-29T10:54:14;97784.85;;;13.64;60.38
61898;BME280;47850;50.274;18.908;2023-04-29T10:59:11;97779.03;;;13.72;60.39
61898;BME280;47850;50.274;18.908;2023-04-29T11:01:43;97780.73;;;13.86;60.09
61898;BME280;47850;50.274;18.908;2023-04-29T11:04:11;97777.72;;;13.94;59.46
61898;BME280;47850;50.274;18.908;2023-04-29T11:06:40;97772.98;;;13.98;59.35
61898;BME280;47850;50.274;18.908;2023-04-29T11:11:46;97772.30;;;14.12;59.25
61898;BME280;47850;50.274;18.908;2023-04-29T11:14:20;97776.71;;;14.16;59.13
61898;BME280;47850;50.274;18.908;2023-04-29T11:16:50;97772.45;;;14.14;59.08
61898;BME280;47850;50.274;18.908;2023-04-29T11:19:18;97772.80;;;14.16;58.97
61898;BME280;47850;50.274;18.908;2023-04-29T11:21:46;97771.73;;;14.26;59.08
61898;BME280;47850;50.274;18.908;2023-04-29T11:24:14;97769.37;;;14.32;58.87
61898;BME280;47850;50.274;18.908;2023-04-29T11:26:42;97769.52;;;14.32;58.94
61898;BME280;47850;50.274;18.908;2023-04-29T11:29:11;97769.45;;;14.32;59.50
61898;BME280;47850;50.274;18.908;2023-04-29T11:31:39;97773.10;;;14.31;59.78
61898;BME280;47850;50.274;18.908;2023-04-29T11:34:07;97780.19;;;14.32;60.47
61898;BME280;47850;50.274;18.908;2023-04-29T11:36:34;97779.84;;;14.38;61.29
61898;BME280;47850;50.274;18.908;2023-04-29T11:39:03;97783.83;;;14.30;61.93
61898;BME280;47850;50.274;18.908;2023-04-29T11:41:31;97782.14;;;14.19;62.86
61898;BME280;47850;50.274;18.908;2023-04-29T11:43:59;97793.80;;;14.10;63.77
61898;BME280;47850;50.274;18.908;2023-04-29T11:46:29;97796.61;;;14.00;64.48
61898;BME280;47850;50.274;18.908;2023-04-29T11:48:57;97789.79;;;13.91;64.65
61898;BME280;47850;50.274;18.908;2023-04-29T11:51:26;97786.17;;;13.88;65.29
61898;BME280;47850;50.274;18.908;2023-04-29T11:53:55;97789.36;;;13.96;65.52
61898;BME280;47850;50.274;18.908;2023-04-29T11:56:24;97787.30;;;14.07;65.40
61898;BME280;47850;50.274;18.908;2023-04-29T11:58:52;97789.23;;;14.18;64.80
61898;BME280;47850;50.274;18.908;2023-04-29T12:01:21;97788.48;;;14.26;64.24
61898;BME280;47850;50.274;18.908;2023-04-29T12:03:49;97786.52;;;14.32;63.64
61898;BME280;47850;50.274;18.908;2023-04-29T12:06:17;97782.98;;;14.37;63.43
61898;BME280;47850;50.274;18.908;2023-04-29T12:08:45;97780.20;;;14.39;63.52
61898;BME280;47850;50.274;18.908;2023-04-29T12:11:13;97777.66;;;14.51;63.29
61898;BME280;47850;50.274;18.908;2023-04-29T12:13:41;97779.80;;;14.77;62.94
61898;BME280;47850;50.274;18.908;2023-04-29T12:16:08;97777.64;;;14.96;62.54
61898;BME280;47850;50.274;18.908;2023-04-29T12:18:37;97774.46;;;15.16;62.38
61898;BME280;47850;50.274;18.908;2023-04-29T12:21:05;97771.07;;;15.38;61.96
61898;BME280;47850;50.274;18.908;2023-04-29T12:23:33;97772.81;;;15.59;61.65
61898;BME280;47850;50.274;18.908;2023-04-29T12:26:02;97771.17;;;15.75;61.14
61898;BME280;47850;50.274;18.908;2023-04-29T12:28:30;97768.02;;;15.99;60.32
61898;BME280;47850;50.274;18.908;2023-04-29T12:30:58;97765.98;;;15.95;59.95
61898;BME280;47850;50.274;18.908;2023-04-29T12:33:26;97764.55;;;15.74;59.88
61898;BME280;47850;50.274;18.908;2023-04-29T12:35:55;97762.65;;;15.57;60.29
61898;BME280;47850;50.274;18.908;2023-04-29T12:38:24;97760.44;;;15.64;60.63
61898;BME280;47850;50.274;18.908;2023-04-29T12:40:56;97753.25;;;15.95;60.01
61898;BME280;47850;50.274;18.908;2023-04-29T12:43:25;97750.79;;;16.16;59.35
61898;BME280;47850;50.274;18.908;2023-04-29T12:45:53;97751.45;;;16.27;58.96
61898;BME280;47850;50.274;18.908;2023-04-29T12:48:21;97752.62;;;16.31;58.14
61898;BME280;47850;50.274;18.908;2023-04-29T12:50:55;97745.04;;;16.49;57.69
61898;BME280;47850;50.274;18.908;2023-04-29T12:53:25;97742.17;;;16.73;57.33
61898;BME280;47850;50.274;18.908;2023-04-29T12:55:53;97742.88;;;16.89;55.37
61898;BME280;47850;50.274;18.908;2023-04-29T12:58:21;97743.98;;;16.88;54.85
61898;BME280;47850;50.274;18.908;2023-04-29T13:00:49;97741.57;;;16.75;54.39
61898;BME280;47850;50.274;18.908;2023-04-29T13:03:17;97747.23;;;16.49;54.56
61898;BME280;47850;50.274;18.908;2023-04-29T13:05:44;97739.69;;;16.29;55.19
61898;BME280;47850;50.274;18.908;2023-04-29T13:08:14;97732.27;;;16.13;55.62
61898;BME280;47850;50.274;18.908;2023-04-29T13:10:42;97738.77;;;16.02;56.47
61898;BME280;47850;50.274;18.908;2023-04-29T13:13:10;97736.17;;;15.97;57.07
61898;BME280;47850;50.274;18.908;2023-04-29T13:15:38;97734.73;;;15.95;57.25
61898;BME280;47850;50.274;18.908;2023-04-29T13:18:06;97730.58;;;15.97;57.48
61898;BME280;47850;50.274;18.908;2023-04-29T13:20:34;97729.95;;;15.96;56.46
61898;BME280;47850;50.274;18.908;2023-04-29T13:23:01;97730.03;;;15.92;56.22
61898;BME280;47850;50.274;18.908;2023-04-29T13:25:29;97730.28;;;15.88;55.71
61898;BME280;47850;50.274;18.908;2023-04-29T13:27:57;97725.55;;;15.83;55.65
61898;BME280;47850;50.274;18.908;2023-04-29T13:30:24;97722.52;;;15.78;56.06